Impacts METAR Board
IDs:

KSLC - Salt Lake City Intl, UT, US

Updated at: 2000 UTC 15 Jun 2019
Potential Impact None Slight Moderate High
Time 15/08Z 15/09Z 15/10Z 15/11Z 15/12Z 15/13Z 15/14Z 15/15Z 15/16Z 15/17Z 15/18Z 15/19Z 15/20Z
Temp67 65 64 64 64 64 68 72 74 78 80 83 83
Dewpt48 48 49 48 48 49 50 50 51 49 49 51 50
Altim29.96 29.96 29.96 29.97 29.99 30.00 30.00 30.01 30.01 30.01 30.00 30.00 29.98
VIS10 10 10 10 10 10 10 10 10 10 10 10 10
CIG220 -- -- -- -- -- -- -- -- -- -- -- --
CoverBKNSCTFEWSCTSCTFEWFEWFEWFEWFEWFEWFEWSCT
FltCatVFRVFRVFRVFRVFRVFRVFRVFRVFRVFRVFRVFRVFR
WX--------------------------
WDir160150130150160140150150160003500
WSpd6 4 6 6 7 7 9 10 5 0 0 8 4
WGst-- -- -- -- -- -- -- -- -- -- -- 16 --
Raw hourly METARs
KSLC 150754Z 16006KT 10SM FEW150 BKN220 19/09 A2996 RMK AO2 SLP094 T01940089 VISNO NW RNWY
KSLC 150854Z 15004KT 10SM FEW150 SCT220 18/09 A2996 RMK AO2 SLP095 T01830089 53001 VISNO NW RNWY
KSLC 150954Z 13006KT 10SM FEW150 FEW220 18/09 A2996 RMK AO2 SLP096 T01780094 VISNO NW RNWY
KSLC 151054Z 15006KT 10SM FEW120 SCT200 18/09 A2997 RMK AO2 SLP099 T01780089 VISNO NW RNWY
KSLC 151154Z 16007KT 10SM FEW140 FEW180 SCT220 18/09 A2999 RMK AO2 SLP105 T01780089 10206 20172 53008 VISNO NW RNWY
KSLC 151254Z 14007KT 10SM FEW150 FEW220 18/09 A3000 RMK AO2 SLP106 T01780094 VISNO NW RNWY
KSLC 151354Z 15009KT 10SM FEW120 FEW180 20/10 A3000 RMK AO2 SLP107 T02000100 VISNO NW RNWY
KSLC 151454Z 15010KT 10SM FEW075 FEW120 FEW180 22/10 A3001 RMK AO2 SLP108 T02220100 53005 VISNO NW RNWY
KSLC 151554Z 16005KT 10SM FEW075 23/11 A3001 RMK AO2 SLP109 T02330106 VISNO NW RNWY
KSLC 151654Z 00000KT 10SM FEW080 26/09 A3001 RMK AO2 SLP107 T02560094 VISNO NW RNWY
KSLC 151754Z 00000KT 10SM FEW080 27/09 A3000 RMK AO2 SLP107 TCU DSNT E AND S AND SW T02670094 10272 20172 58001 VISNO NW RNWY
KSLC 151854Z 35008G16KT 10SM FEW080 28/11 A3000 RMK AO2 SLP102 CB DSNT S TCU DSNT N AND E AND SW T02830106 VISNO NW RNWY
KSLC 151954Z VRB04KT 10SM SCT080 28/10 A2998 RMK AO2 SLP099 CB DSNT S TCU DSNT N-NE AND SE T02830100 VISNO NW RNWY



Page loaded:  20:59 UTC  |   01:59 PM Pacific  |   02:59 PM Mountain  |   03:59 PM Central  |   04:59 PM Eastern

 

ADVISORIES

FORECASTS

FORECASTS

OBSERVATIONS

USER TOOLS

ABOUT US